Time,TemperatureF,DewpointF,PressureIn,WindDirection,WindDirectionDegrees,WindSpeedMPH,WindSpeedGustMPH,Humidity,HourlyPrecipIn,Conditions,Clouds,dailyrainin,SoftwareType,DateUTC
2013-03-07 00:01:00,36.0,27.0,30.22,NE,50,5.0,-999.0,69,-99.99,,,-99.99,,2013-03-07 06:01:00,
2013-03-07 00:11:00,36.0,27.0,30.22,NE,50,5.0,-999.0,69,-99.99,,,-99.99,,2013-03-07 06:11:00,
2013-03-07 00:21:00,36.0,27.0,30.22,NE,50,5.0,-999.0,69,-99.99,,,-99.99,,2013-03-07 06:21:00,
2013-03-07 00:32:00,36.0,27.0,30.22,NE,50,5.0,-999.0,69,-99.99,,,-99.99,,2013-03-07 06:32:00,
2013-03-07 00:42:00,36.0,27.0,30.22,NE,50,5.0,-999.0,69,-99.99,,,-99.99,,2013-03-07 06:42:00,
2013-03-07 00:52:00,36.0,27.0,30.21,East,80,6.0,-999.0,69,-99.99,,,-99.99,,2013-03-07 06:52:00,
2013-03-07 01:01:00,36.0,27.0,30.21,East,80,6.0,-999.0,69,-99.99,,,-99.99,,2013-03-07 07:01:00,
2013-03-07 01:11:00,36.0,27.0,30.22,North,0,0.0,-999.0,69,-99.99,,,-99.99,,2013-03-07 07:11:00,
2013-03-07 01:21:00,36.0,27.0,30.22,North,0,0.0,-999.0,69,-99.99,,,-99.99,,2013-03-07 07:21:00,
2013-03-07 01:32:00,36.0,27.0,30.22,North,0,0.0,-999.0,69,-99.99,,,-99.99,,2013-03-07 07:32:00,
2013-03-07 01:42:00,36.0,27.0,30.22,North,0,0.0,-999.0,69,-99.99,,,-99.99,,2013-03-07 07:42:00,
2013-03-07 01:52:00,36.0,27.0,30.22,North,0,0.0,-999.0,69,-99.99,,,-99.99,,2013-03-07 07:52:00,
2013-03-07 02:23:00,36.0,27.0,30.22,East,90,7.0,-999.0,69,-99.99,,,-99.99,,2013-03-07 08:23:00,
2013-03-07 02:33:00,36.0,27.0,30.22,East,90,6.0,-999.0,69,-99.99,,,-99.99,,2013-03-07 08:33:00,
2013-03-07 02:44:00,36.0,27.0,30.22,East,90,6.0,-999.0,69,-99.99,,,-99.99,,2013-03-07 08:44:00,
2013-03-07 02:53:00,37.0,28.0,30.21,East,100,6.0,-999.0,69,-99.99,,,-99.99,,2013-03-07 08:53:00,
2013-03-07 03:03:00,37.0,28.0,30.21,East,100,6.0,-999.0,69,-99.99,,,-99.99,,2013-03-07 09:03:00,
2013-03-07 03:12:00,37.0,28.0,30.21,East,100,5.0,-999.0,69,-99.99,,,-99.99,,2013-03-07 09:12:00,
2013-03-07 03:23:00,37.0,28.0,30.21,East,100,5.0,-999.0,69,-99.99,,,-99.99,,2013-03-07 09:23:00,
2013-03-07 03:32:00,37.0,28.0,30.21,East,100,5.0,-999.0,69,-99.99,,,-99.99,,2013-03-07 09:32:00,
2013-03-07 03:42:00,37.0,28.0,30.21,East,100,5.0,-999.0,69,-99.99,,,-99.99,,2013-03-07 09:42:00,
2013-03-07 03:52:00,37.0,28.0,30.21,East,100,5.0,-999.0,69,-99.99,,,-99.99,,2013-03-07 09:52:00,
2013-03-07 04:13:00,37.0,27.0,30.21,SE,130,7.0,-999.0,64,-99.99,,,-99.99,,2013-03-07 10:13:00,
2013-03-07 04:23:00,37.0,27.0,30.21,SE,130,7.0,-999.0,64,-99.99,,,-99.99,,2013-03-07 10:23:00,
2013-03-07 04:33:00,37.0,27.0,30.21,SE,130,8.0,-999.0,64,-99.99,,,-99.99,,2013-03-07 10:33:00,
2013-03-07 04:42:00,37.0,27.0,30.21,SE,130,8.0,-999.0,64,-99.99,,,-99.99,,2013-03-07 10:42:00,
2013-03-07 04:52:00,37.0,27.0,30.21,SE,130,8.0,-999.0,64,-99.99,,,-99.99,,2013-03-07 10:52:00,
2013-03-07 05:03:00,37.0,27.0,30.21,SE,130,8.0,-999.0,64,-99.99,,,-99.99,,2013-03-07 11:03:00,
2013-03-07 05:12:00,37.0,27.0,30.21,SE,130,8.0,-999.0,64,-99.99,,,-99.99,,2013-03-07 11:12:00,
2013-03-07 06:34:00,36.0,27.0,30.20,ESE,120,8.0,-999.0,69,-99.99,,,-99.99,,2013-03-07 12:34:00,
2013-03-07 06:43:00,36.0,27.0,30.20,ESE,120,8.0,-999.0,69,-99.99,,,-99.99,,2013-03-07 12:43:00,
2013-03-07 06:53:00,36.0,27.0,30.20,ESE,120,8.0,-999.0,69,-99.99,,,-99.99,,2013-03-07 12:53:00,
2013-03-07 07:02:00,36.0,27.0,30.20,ESE,120,8.0,-999.0,69,-99.99,,,-99.99,,2013-03-07 13:02:00,
2013-03-07 07:12:00,36.0,27.0,30.20,ESE,120,8.0,-999.0,69,-99.99,,,-99.99,,2013-03-07 13:12:00,
2013-03-07 07:22:00,36.0,27.0,30.20,ESE,120,8.0,-999.0,69,-99.99,,,-99.99,,2013-03-07 13:22:00,
2013-03-07 07:32:00,36.0,27.0,30.20,ESE,120,8.0,-999.0,69,-99.99,,,-99.99,,2013-03-07 13:32:00,
2013-03-07 07:42:00,36.0,27.0,30.20,ESE,120,8.0,-999.0,69,-99.99,,,-99.99,,2013-03-07 13:42:00,
2013-03-07 07:52:00,36.0,27.0,30.20,ESE,120,8.0,-999.0,69,-99.99,,,-99.99,,2013-03-07 13:52:00,
2013-03-07 08:12:00,37.0,27.0,30.21,SE,130,9.0,-999.0,64,-99.99,,,-99.99,,2013-03-07 14:12:00,
2013-03-07 08:23:00,37.0,27.0,30.21,SE,130,9.0,-999.0,64,-99.99,,,-99.99,,2013-03-07 14:23:00,
2013-03-07 08:33:00,39.0,28.0,30.22,SE,130,12.0,16.0,64,-99.99,,,-99.99,,2013-03-07 14:33:00,
2013-03-07 08:42:00,39.0,28.0,30.22,SE,130,12.0,16.0,64,-99.99,,,-99.99,,2013-03-07 14:42:00,
2013-03-07 08:53:00,41.0,28.0,30.22,SE,140,12.0,18.0,60,-99.99,,,-99.99,,2013-03-07 14:53:00,
2013-03-07 09:03:00,41.0,28.0,30.22,SE,140,12.0,18.0,60,-99.99,,,-99.99,,2013-03-07 15:03:00,
2013-03-07 09:12:00,45.0,28.0,30.23,ESE,120,9.0,-999.0,52,-99.99,,,-99.99,,2013-03-07 15:12:00,
2013-03-07 09:23:00,45.0,28.0,30.23,ESE,120,9.0,-999.0,52,-99.99,,,-99.99,,2013-03-07 15:23:00,
2013-03-07 09:32:00,45.0,27.0,30.23,SSE,150,12.0,17.0,48,-99.99,,,-99.99,,2013-03-07 15:32:00,
2013-03-07 09:42:00,45.0,27.0,30.23,SSE,150,12.0,17.0,48,-99.99,,,-99.99,,2013-03-07 15:42:00,
2013-03-07 09:52:00,45.0,27.0,30.23,SSE,150,12.0,17.0,48,-99.99,,,-99.99,,2013-03-07 15:52:00,
2013-03-07 10:02:00,45.0,27.0,30.23,SSE,150,12.0,17.0,48,-99.99,,,-99.99,,2013-03-07 16:02:00,
2013-03-07 10:12:00,45.0,27.0,30.23,SSE,150,12.0,17.0,48,-99.99,,,-99.99,,2013-03-07 16:12:00,
2013-03-07 10:23:00,50.0,30.0,30.23,SSE,160,9.0,-999.0,46,-99.99,,,-99.99,,2013-03-07 16:23:00,
2013-03-07 10:32:00,52.0,30.0,30.23,SSE,160,12.0,20.0,43,-99.99,,,-99.99,,2013-03-07 16:32:00,
2013-03-07 10:43:00,52.0,30.0,30.23,SSE,160,12.0,20.0,43,-99.99,,,-99.99,,2013-03-07 16:43:00,
2013-03-07 10:52:00,52.0,30.0,30.23,SSE,160,12.0,20.0,43,-99.99,,,-99.99,,2013-03-07 16:52:00,
2013-03-07 11:02:00,52.0,30.0,30.23,SSE,160,12.0,20.0,43,-99.99,,,-99.99,,2013-03-07 17:02:00,
2013-03-07 11:12:00,54.0,28.0,30.22,South,170,13.0,17.0,37,-99.99,,,-99.99,,2013-03-07 17:12:00,
2013-03-07 11:22:00,54.0,28.0,30.22,South,170,13.0,17.0,37,-99.99,,,-99.99,,2013-03-07 17:22:00,
2013-03-07 11:33:00,54.0,27.0,30.23,SSW,200,10.0,22.0,34,-99.99,,,-99.99,,2013-03-07 17:33:00,
2013-03-07 11:43:00,54.0,27.0,30.23,SSW,200,10.0,22.0,34,-99.99,,,-99.99,,2013-03-07 17:43:00,
2013-03-07 11:53:00,54.0,27.0,30.23,SSW,200,10.0,22.0,34,-99.99,,,-99.99,,2013-03-07 17:53:00,
2013-03-07 12:03:00,54.0,27.0,30.23,SSW,200,10.0,22.0,34,-99.99,,,-99.99,,2013-03-07 18:03:00,
2013-03-07 12:12:00,54.0,27.0,30.23,SSW,200,10.0,22.0,34,-99.99,,,-99.99,,2013-03-07 18:12:00,
2013-03-07 12:32:00,57.0,28.0,30.21,South,180,14.0,18.0,33,-99.99,,,-99.99,,2013-03-07 18:32:00,
2013-03-07 12:43:00,57.0,28.0,30.21,South,180,14.0,18.0,33,-99.99,,,-99.99,,2013-03-07 18:43:00,
2013-03-07 12:53:00,59.0,27.0,30.20,South,180,8.0,-999.0,28,-99.99,,,-99.99,,2013-03-07 18:53:00,
2013-03-07 13:03:00,59.0,27.0,30.20,South,180,8.0,-999.0,28,-99.99,,,-99.99,,2013-03-07 19:03:00,
2013-03-07 13:12:00,59.0,27.0,30.20,South,180,8.0,-999.0,28,-99.99,,,-99.99,,2013-03-07 19:12:00,
2013-03-07 13:23:00,59.0,27.0,30.20,South,180,8.0,-999.0,28,-99.99,,,-99.99,,2013-03-07 19:23:00,
2013-03-07 13:34:00,59.0,27.0,30.20,South,180,8.0,-999.0,28,-99.99,,,-99.99,,2013-03-07 19:34:00,
2013-03-07 13:53:00,61.0,27.0,30.17,North,350,13.0,21.0,26,-99.99,,,-99.99,,2013-03-07 19:53:00,
2013-03-07 14:13:00,61.0,27.0,30.17,North,350,13.0,21.0,26,-99.99,,,-99.99,,2013-03-07 20:13:00,
2013-03-07 14:22:00,61.0,27.0,30.17,North,350,13.0,21.0,26,-99.99,,,-99.99,,2013-03-07 20:22:00,
2013-03-07 14:33:00,61.0,27.0,30.16,South,190,9.0,-999.0,26,-99.99,,,-99.99,,2013-03-07 20:33:00,
2013-03-07 14:43:00,61.0,27.0,30.16,South,190,9.0,-999.0,26,-99.99,,,-99.99,,2013-03-07 20:43:00,
2013-03-07 14:54:00,61.0,27.0,30.15,South,190,17.0,23.0,26,-99.99,,,-99.99,,2013-03-07 20:54:00,
2013-03-07 15:02:00,61.0,27.0,30.15,South,190,17.0,23.0,26,-99.99,,,-99.99,,2013-03-07 21:02:00,
2013-03-07 15:12:00,63.0,27.0,30.15,SSE,160,13.0,23.0,25,-99.99,,,-99.99,,2013-03-07 21:12:00,
2013-03-07 15:22:00,63.0,27.0,30.15,SSE,160,13.0,23.0,25,-99.99,,,-99.99,,2013-03-07 21:22:00,
2013-03-07 15:32:00,63.0,27.0,30.15,SSE,160,13.0,23.0,25,-99.99,,,-99.99,,2013-03-07 21:32:00,
2013-03-07 15:42:00,63.0,27.0,30.15,SSE,160,13.0,23.0,25,-99.99,,,-99.99,,2013-03-07 21:42:00,
2013-03-07 15:52:00,63.0,27.0,30.15,SSE,160,13.0,23.0,25,-99.99,,,-99.99,,2013-03-07 21:52:00,
2013-03-07 16:12:00,63.0,25.0,30.14,South,190,10.0,16.0,23,-99.99,,,-99.99,,2013-03-07 22:12:00,
2013-03-07 16:22:00,63.0,25.0,30.14,South,190,10.0,16.0,23,-99.99,,,-99.99,,2013-03-07 22:22:00,
2013-03-07 16:32:00,63.0,25.0,30.13,South,170,10.0,20.0,23,-99.99,,,-99.99,,2013-03-07 22:32:00,
2013-03-07 16:42:00,63.0,25.0,30.13,South,170,10.0,20.0,23,-99.99,,,-99.99,,2013-03-07 22:42:00,
2013-03-07 16:53:00,63.0,25.0,30.13,South,170,10.0,20.0,23,-99.99,,,-99.99,,2013-03-07 22:53:00,
2013-03-07 17:02:00,63.0,25.0,30.13,South,170,10.0,20.0,23,-99.99,,,-99.99,,2013-03-07 23:02:00,
2013-03-07 17:12:00,63.0,25.0,30.12,South,170,12.0,16.0,23,-99.99,,,-99.99,,2013-03-07 23:12:00,
2013-03-07 17:22:00,63.0,25.0,30.12,South,170,12.0,16.0,23,-99.99,,,-99.99,,2013-03-07 23:22:00,
2013-03-07 17:33:00,63.0,25.0,30.12,South,170,12.0,16.0,23,-99.99,,,-99.99,,2013-03-07 23:33:00,
2013-03-07 17:43:00,63.0,25.0,30.12,South,170,12.0,16.0,23,-99.99,,,-99.99,,2013-03-07 23:43:00,
2013-03-07 17:52:00,63.0,25.0,30.12,South,170,12.0,16.0,23,-99.99,,,-99.99,,2013-03-07 23:52:00,
2013-03-07 19:52:00,50.0,28.0,30.14,South,170,7.0,-999.0,43,-99.99,,,-99.99,,2013-03-08 01:52:00,
2013-03-07 20:01:00,50.0,28.0,30.14,South,170,7.0,-999.0,43,-99.99,,,-99.99,,2013-03-08 02:01:00,
2013-03-07 20:11:00,48.0,28.0,30.14,South,170,5.0,-999.0,46,-99.99,,,-99.99,,2013-03-08 02:11:00,
2013-03-07 20:22:00,48.0,28.0,30.14,South,170,5.0,-999.0,46,-99.99,,,-99.99,,2013-03-08 02:22:00,
2013-03-07 20:42:00,48.0,28.0,30.14,South,170,5.0,-999.0,46,-99.99,,,-99.99,,2013-03-08 02:42:00,
2013-03-07 20:52:00,50.0,28.0,30.14,South,170,6.0,-999.0,43,-99.99,,,-99.99,,2013-03-08 02:52:00,
2013-03-07 21:02:00,50.0,28.0,30.14,South,170,6.0,-999.0,43,-99.99,,,-99.99,,2013-03-08 03:02:00,
2013-03-07 21:12:00,52.0,28.0,30.14,SE,140,7.0,-999.0,40,-99.99,,,-99.99,,2013-03-08 03:12:00,
2013-03-07 21:22:00,52.0,28.0,30.14,SE,140,7.0,-999.0,40,-99.99,,,-99.99,,2013-03-08 03:22:00,
2013-03-07 21:32:00,50.0,28.0,30.15,SE,140,7.0,-999.0,43,-99.99,,,-99.99,,2013-03-08 03:32:00,
2013-03-07 21:42:00,50.0,28.0,30.15,SE,140,7.0,-999.0,43,-99.99,,,-99.99,,2013-03-08 03:42:00,
2013-03-07 21:52:00,50.0,28.0,30.15,SE,140,8.0,-999.0,43,-99.99,,,-99.99,,2013-03-08 03:52:00,
2013-03-07 22:01:00,50.0,28.0,30.15,SE,140,8.0,-999.0,43,-99.99,,,-99.99,,2013-03-08 04:01:00,
2013-03-07 22:11:00,50.0,28.0,30.15,SE,140,7.0,-999.0,43,-99.99,,,-99.99,,2013-03-08 04:11:00,
2013-03-07 22:22:00,50.0,28.0,30.15,SE,140,7.0,-999.0,43,-99.99,,,-99.99,,2013-03-08 04:22:00,
2013-03-07 22:32:00,48.0,28.0,30.17,SE,130,5.0,-999.0,46,-99.99,,,-99.99,,2013-03-08 04:32:00,
2013-03-07 22:42:00,48.0,28.0,30.17,SE,130,5.0,-999.0,46,-99.99,,,-99.99,,2013-03-08 04:42:00,
2013-03-07 22:52:00,48.0,28.0,30.17,SE,130,6.0,-999.0,46,-99.99,,,-99.99,,2013-03-08 04:52:00,
2013-03-07 23:02:00,48.0,28.0,30.17,SE,130,6.0,-999.0,46,-99.99,,,-99.99,,2013-03-08 05:02:00,
2013-03-07 23:12:00,48.0,28.0,30.17,SE,130,7.0,-999.0,46,-99.99,,,-99.99,,2013-03-08 05:12:00,
2013-03-07 23:22:00,48.0,28.0,30.17,SE,130,7.0,-999.0,46,-99.99,,,-99.99,,2013-03-08 05:22:00,
2013-03-07 23:32:00,46.0,28.0,30.17,SE,130,8.0,-999.0,49,-99.99,,,-99.99,,2013-03-08 05:32:00,
2013-03-07 23:42:00,46.0,28.0,30.17,SE,130,8.0,-999.0,49,-99.99,,,-99.99,,2013-03-08 05:42:00,
2013-03-07 23:52:00,46.0,30.0,30.17,SE,130,9.0,-999.0,52,-99.99,,,-99.99,,2013-03-08 05:52:00,